sensor_id;sensor_type;location;lat;lon;timestamp;pressure;altitude;pressure_sealevel;temperature;humidity
63111;BME280;49201;53.426;10.300;2023-03-04T00:01:36;102090.53;;;5.75;100.00
63111;BME280;49201;53.426;10.300;2023-03-04T00:04:01;102083.00;;;5.77;100.00
63111;BME280;49201;53.426;10.300;2023-03-04T00:06:26;102085.63;;;5.78;100.00
63111;BME280;49201;53.426;10.300;2023-03-04T00:08:52;102089.94;;;5.79;100.00
63111;BME280;49201;53.426;10.300;2023-03-04T00:11:17;102081.41;;;5.79;100.00
63111;BME280;49201;53.426;10.300;2023-03-04T00:13:43;102074.91;;;5.82;100.00
63111;BME280;49201;53.426;10.300;2023-03-04T00:16:08;102082.63;;;5.84;100.00
63111;BME280;49201;53.426;10.300;2023-03-04T00:18:34;102080.94;;;5.84;100.00
63111;BME280;49201;53.426;10.300;2023-03-04T00:20:59;102085.16;;;5.84;100.00
63111;BME280;49201;53.426;10.300;2023-03-04T00:23:25;102084.38;;;5.85;100.00
63111;BME280;49201;53.426;10.300;2023-03-04T00:25:50;102081.03;;;5.86;100.00
63111;BME280;49201;53.426;10.300;2023-03-04T00:28:16;102086.47;;;5.92;100.00
63111;BME280;49201;53.426;10.300;2023-03-04T00:30:41;102073.94;;;5.95;100.00
63111;BME280;49201;53.426;10.300;2023-03-04T00:33:06;102077.28;;;5.94;100.00
63111;BME280;49201;53.426;10.300;2023-03-04T00:35:32;102069.66;;;5.94;100.00
63111;BME280;49201;53.426;10.300;2023-03-04T00:37:57;102076.47;;;5.95;100.00
63111;BME280;49201;53.426;10.300;2023-03-04T00:40:23;102067.97;;;5.94;100.00
63111;BME280;49201;53.426;10.300;2023-03-04T00:42:48;102062.97;;;5.96;100.00
63111;BME280;49201;53.426;10.300;2023-03-04T00:45:14;102055.25;;;5.94;100.00
63111;BME280;49201;53.426;10.300;2023-03-04T00:47:39;102056.41;;;5.99;100.00
63111;BME280;49201;53.426;10.300;2023-03-04T00:50:05;102062.38;;;6.00;100.00
63111;BME280;49201;53.426;10.300;2023-03-04T00:52:31;102049.66;;;6.00;100.00
63111;BME280;49201;53.426;10.300;2023-03-04T00:54:56;102052.28;;;6.01;100.00
63111;BME280;49201;53.426;10.300;2023-03-04T00:57:22;102053.25;;;6.03;100.00
63111;BME280;49201;53.426;10.300;2023-03-04T00:59:47;102055.69;;;6.02;100.00
63111;BME280;49201;53.426;10.300;2023-03-04T01:02:13;102043.97;;;6.04;100.00
63111;BME280;49201;53.426;10.300;2023-03-04T01:04:38;102051.69;;;6.05;100.00
63111;BME280;49201;53.426;10.300;2023-03-04T01:07:04;102044.06;;;6.05;100.00
63111;BME280;49201;53.426;10.300;2023-03-04T01:09:29;102046.59;;;6.05;100.00
63111;BME280;49201;53.426;10.300;2023-03-04T01:11:55;102042.38;;;6.06;100.00
63111;BME280;49201;53.426;10.300;2023-03-04T01:14:21;102041.50;;;6.05;100.00
63111;BME280;49201;53.426;10.300;2023-03-04T01:16:47;102035.63;;;6.06;100.00
63111;BME280;49201;53.426;10.300;2023-03-04T01:19:14;102039.91;;;6.07;100.00
63111;BME280;49201;53.426;10.300;2023-03-04T01:21:39;102031.50;;;6.08;100.00
63111;BME280;49201;53.426;10.300;2023-03-04T01:24:05;102039.13;;;6.08;100.00
63111;BME280;49201;53.426;10.300;2023-03-04T01:26:30;102028.19;;;6.09;100.00
63111;BME280;49201;53.426;10.300;2023-03-04T01:28:56;102029.84;;;6.09;100.00
63111;BME280;49201;53.426;10.300;2023-03-04T01:31:21;102014.50;;;6.07;100.00
63111;BME280;49201;53.426;10.300;2023-03-04T01:33:47;102010.38;;;6.09;100.00
63111;BME280;49201;53.426;10.300;2023-03-04T01:36:12;102007.84;;;6.09;100.00
63111;BME280;49201;53.426;10.300;2023-03-04T01:38:38;102019.75;;;6.10;100.00
63111;BME280;49201;53.426;10.300;2023-03-04T01:41:04;102015.47;;;6.09;100.00
63111;BME280;49201;53.426;10.300;2023-03-04T01:43:30;102020.56;;;6.09;100.00
63111;BME280;49201;53.426;10.300;2023-03-04T01:45:56;102004.41;;;6.09;100.00
63111;BME280;49201;53.426;10.300;2023-03-04T01:48:26;101999.44;;;6.10;100.00
63111;BME280;49201;53.426;10.300;2023-03-04T01:50:52;102004.50;;;6.10;100.00
63111;BME280;49201;53.426;10.300;2023-03-04T01:53:23;101995.13;;;6.09;100.00
63111;BME280;49201;53.426;10.300;2023-03-04T01:55:51;101990.06;;;6.09;100.00
63111;BME280;49201;53.426;10.300;2023-03-04T01:58:17;101999.34;;;6.09;100.00
63111;BME280;49201;53.426;10.300;2023-03-04T02:00:42;101988.28;;;6.08;100.00
63111;BME280;49201;53.426;10.300;2023-03-04T02:03:12;101984.88;;;6.08;100.00
63111;BME280;49201;53.426;10.300;2023-03-04T02:05:45;101977.25;;;6.08;100.00
63111;BME280;49201;53.426;10.300;2023-03-04T02:08:12;101979.00;;;6.09;100.00
63111;BME280;49201;53.426;10.300;2023-03-04T02:10:41;101972.94;;;6.07;100.00
63111;BME280;49201;53.426;10.300;2023-03-04T02:13:07;101972.94;;;6.07;100.00
63111;BME280;49201;53.426;10.300;2023-03-04T02:15:32;101977.25;;;6.08;100.00
63111;BME280;49201;53.426;10.300;2023-03-04T02:17:58;101959.47;;;6.08;100.00
63111;BME280;49201;53.426;10.300;2023-03-04T02:23:42;101963.56;;;6.06;100.00
63111;BME280;49201;53.426;10.300;2023-03-04T02:28:31;101954.28;;;6.06;100.00
63111;BME280;49201;53.426;10.300;2023-03-04T02:30:57;101948.41;;;6.07;100.00
63111;BME280;49201;53.426;10.300;2023-03-04T02:33:22;101938.22;;;6.07;100.00
63111;BME280;49201;53.426;10.300;2023-03-04T02:35:48;101938.22;;;6.07;100.00
63111;BME280;49201;53.426;10.300;2023-03-04T02:38:13;101939.97;;;6.08;100.00
63111;BME280;49201;53.426;10.300;2023-03-04T02:40:41;101939.22;;;6.09;100.00
63111;BME280;49201;53.426;10.300;2023-03-04T02:43:11;101943.50;;;6.10;100.00
63111;BME280;49201;53.426;10.300;2023-03-04T02:45:44;101946.03;;;6.10;100.00
63111;BME280;49201;53.426;10.300;2023-03-04T02:48:10;101929.09;;;6.11;100.00
63111;BME280;49201;53.426;10.300;2023-03-04T02:50:43;101935.97;;;6.12;100.00
63111;BME280;49201;53.426;10.300;2023-03-04T02:53:10;101916.47;;;6.12;100.00
63111;BME280;49201;53.426;10.300;2023-03-04T02:55:36;101930.88;;;6.12;100.00
63111;BME280;49201;53.426;10.300;2023-03-04T02:58:02;101917.34;;;6.13;100.00
63111;BME280;49201;53.426;10.300;2023-03-04T03:00:28;101930.94;;;6.13;100.00
63111;BME280;49201;53.426;10.300;2023-03-04T03:02:54;101911.38;;;6.12;100.00
63111;BME280;49201;53.426;10.300;2023-03-04T03:05:23;101914.81;;;6.13;100.00
63111;BME280;49201;53.426;10.300;2023-03-04T03:07:49;101915.63;;;6.12;100.00
63111;BME280;49201;53.426;10.300;2023-03-04T03:10:15;101907.19;;;6.13;100.00
63111;BME280;49201;53.426;10.300;2023-03-04T03:12:41;101908.03;;;6.13;100.00
63111;BME280;49201;53.426;10.300;2023-03-04T03:15:07;101895.34;;;6.13;100.00
63111;BME280;49201;53.426;10.300;2023-03-04T03:17:33;101903.03;;;6.15;100.00
63111;BME280;49201;53.426;10.300;2023-03-04T03:19:59;101906.38;;;6.14;100.00
63111;BME280;49201;53.426;10.300;2023-03-04T03:22:25;101899.66;;;6.14;100.00
63111;BME280;49201;53.426;10.300;2023-03-04T03:24:52;101894.72;;;6.17;100.00
63111;BME280;49201;53.426;10.300;2023-03-04T03:27:17;101898.94;;;6.17;100.00
63111;BME280;49201;53.426;10.300;2023-03-04T03:29:44;101898.06;;;6.16;100.00
63111;BME280;49201;53.426;10.300;2023-03-04T03:32:10;101903.31;;;6.19;100.00
63111;BME280;49201;53.426;10.300;2023-03-04T03:34:35;101904.97;;;6.19;100.00
63111;BME280;49201;53.426;10.300;2023-03-04T03:37:01;101904.06;;;6.18;100.00
63111;BME280;49201;53.426;10.300;2023-03-04T03:39:26;101901.53;;;6.18;100.00
63111;BME280;49201;53.426;10.300;2023-03-04T03:41:52;101891.38;;;6.18;100.00
63111;BME280;49201;53.426;10.300;2023-03-04T03:44:17;101895.59;;;6.18;100.00
63111;BME280;49201;53.426;10.300;2023-03-04T03:46:43;101887.97;;;6.18;100.00
63111;BME280;49201;53.426;10.300;2023-03-04T03:49:08;101884.72;;;6.20;100.00
63111;BME280;49201;53.426;10.300;2023-03-04T03:51:33;101889.00;;;6.21;100.00
63111;BME280;49201;53.426;10.300;2023-03-04T03:53:59;101889.88;;;6.22;100.00
63111;BME280;49201;53.426;10.300;2023-03-04T03:56:24;101889.88;;;6.22;100.00
63111;BME280;49201;53.426;10.300;2023-03-04T03:58:50;101892.44;;;6.22;100.00
63111;BME280;49201;53.426;10.300;2023-03-04T04:01:15;101889.00;;;6.21;100.00
63111;BME280;49201;53.426;10.300;2023-03-04T04:03:41;101889.00;;;6.21;100.00
63111;BME280;49201;53.426;10.300;2023-03-04T04:06:06;101885.66;;;6.22;100.00
63111;BME280;49201;53.426;10.300;2023-03-04T04:08:31;101896.72;;;6.23;100.00
63111;BME280;49201;53.426;10.300;2023-03-04T04:10:57;101883.91;;;6.21;100.00
63111;BME280;49201;53.426;10.300;2023-03-04T04:13:23;101875.34;;;6.19;100.00
63111;BME280;49201;53.426;10.300;2023-03-04T04:15:50;101877.72;;;6.16;100.00
63111;BME280;49201;53.426;10.300;2023-03-04T04:18:16;101879.31;;;6.14;100.00
63111;BME280;49201;53.426;10.300;2023-03-04T04:20:41;101867.31;;;6.12;100.00
63111;BME280;49201;53.426;10.300;2023-03-04T04:23:07;101869.75;;;6.10;100.00
63111;BME280;49201;53.426;10.300;2023-03-04T04:25:32;101864.69;;;6.10;100.00
63111;BME280;49201;53.426;10.300;2023-03-04T04:27:58;101871.41;;;6.10;100.00
63111;BME280;49201;53.426;10.300;2023-03-04T04:30:23;101870.72;;;6.12;100.00
63111;BME280;49201;53.426;10.300;2023-03-04T04:32:49;101863.88;;;6.11;100.00
63111;BME280;49201;53.426;10.300;2023-03-04T04:35:14;101872.44;;;6.13;100.00
63111;BME280;49201;53.426;10.300;2023-03-04T04:37:40;101871.59;;;6.13;100.00
63111;BME280;49201;53.426;10.300;2023-03-04T04:40:05;101874.22;;;6.14;100.00
63111;BME280;49201;53.426;10.300;2023-03-04T04:42:31;101866.59;;;6.14;100.00
63111;BME280;49201;53.426;10.300;2023-03-04T04:44:57;101873.44;;;6.15;100.00
63111;BME280;49201;53.426;10.300;2023-03-04T04:47:23;101860.72;;;6.15;100.00
63111;BME280;49201;53.426;10.300;2023-03-04T04:49:48;101874.38;;;6.17;100.00
63111;BME280;49201;53.426;10.300;2023-03-04T04:52:14;101864.28;;;6.19;100.00
63111;BME280;49201;53.426;10.300;2023-03-04T04:54:39;101868.56;;;6.20;100.00
63111;BME280;49201;53.426;10.300;2023-03-04T04:57:05;101861.81;;;6.20;100.00
63111;BME280;49201;53.426;10.300;2023-03-04T04:59:30;101866.81;;;6.19;100.00
63111;BME280;49201;53.426;10.300;2023-03-04T05:01:55;101863.47;;;6.20;100.00
63111;BME280;49201;53.426;10.300;2023-03-04T05:04:21;101855.84;;;6.20;100.00
63111;BME280;49201;53.426;10.300;2023-03-04T05:06:46;101860.22;;;6.22;100.00
63111;BME280;49201;53.426;10.300;2023-03-04T05:09:12;101857.69;;;6.22;100.00
63111;BME280;49201;53.426;10.300;2023-03-04T05:11:37;101857.69;;;6.22;100.00
63111;BME280;49201;53.426;10.300;2023-03-04T05:14:03;101851.88;;;6.25;100.00
63111;BME280;49201;53.426;10.300;2023-03-04T05:16:28;101860.41;;;6.25;100.00
63111;BME280;49201;53.426;10.300;2023-03-04T05:18:54;101846.66;;;6.22;100.00
63111;BME280;49201;53.426;10.300;2023-03-04T05:21:19;101845.78;;;6.21;100.00
63111;BME280;49201;53.426;10.300;2023-03-04T05:23:45;101844.91;;;6.21;100.00
63111;BME280;49201;53.426;10.300;2023-03-04T05:26:13;101845.78;;;6.21;100.00
63111;BME280;49201;53.426;10.300;2023-03-04T05:28:39;101844.13;;;6.22;100.00
63111;BME280;49201;53.426;10.300;2023-03-04T05:31:05;101847.50;;;6.22;100.00
63111;BME280;49201;53.426;10.300;2023-03-04T05:33:31;101848.31;;;6.21;100.00
63111;BME280;49201;53.426;10.300;2023-03-04T05:35:56;101858.47;;;6.21;100.00
63111;BME280;49201;53.426;10.300;2023-03-04T05:38:22;101858.56;;;6.23;100.00
63111;BME280;49201;53.426;10.300;2023-03-04T05:40:55;101863.66;;;6.23;100.00
63111;BME280;49201;53.426;10.300;2023-03-04T05:43:21;101862.63;;;6.19;100.00
63111;BME280;49201;53.426;10.300;2023-03-04T05:45:48;101861.56;;;6.16;100.00
63111;BME280;49201;53.426;10.300;2023-03-04T05:48:13;101851.16;;;6.11;100.00
63111;BME280;49201;53.426;10.300;2023-03-04T05:50:39;101860.41;;;6.09;100.00
63111;BME280;49201;53.426;10.300;2023-03-04T05:53:04;101861.25;;;6.10;100.00
63111;BME280;49201;53.426;10.300;2023-03-04T05:55:30;101852.59;;;6.06;100.00
63111;BME280;49201;53.426;10.300;2023-03-04T05:57:56;101861.03;;;6.05;100.00
63111;BME280;49201;53.426;10.300;2023-03-04T06:00:22;101854.16;;;6.04;100.00
63111;BME280;49201;53.426;10.300;2023-03-04T06:02:48;101866.81;;;6.03;100.00
63111;BME280;49201;53.426;10.300;2023-03-04T06:05:14;101860.75;;;6.01;100.00
63111;BME280;49201;53.426;10.300;2023-03-04T06:07:41;101860.75;;;6.01;100.00
63111;BME280;49201;53.426;10.300;2023-03-04T06:10:08;101853.75;;;5.97;100.00
63111;BME280;49201;53.426;10.300;2023-03-04T06:12:34;101858.06;;;5.98;100.00
63111;BME280;49201;53.426;10.300;2023-03-04T06:14:59;101858.00;;;5.96;100.00
63111;BME280;49201;53.426;10.300;2023-03-04T06:17:25;101863.84;;;5.95;100.00
63111;BME280;49201;53.426;10.300;2023-03-04T06:19:50;101855.34;;;5.95;100.00
63111;BME280;49201;53.426;10.300;2023-03-04T06:22:16;101851.06;;;5.94;100.00
63111;BME280;49201;53.426;10.300;2023-03-04T06:24:41;101867.97;;;5.93;100.00
63111;BME280;49201;53.426;10.300;2023-03-04T06:27:06;101865.34;;;5.92;100.00
63111;BME280;49201;53.426;10.300;2023-03-04T06:29:32;101875.59;;;5.93;100.00
63111;BME280;49201;53.426;10.300;2023-03-04T06:31:58;101863.69;;;5.92;100.00
63111;BME280;49201;53.426;10.300;2023-03-04T06:34:23;101861.16;;;5.92;100.00
63111;BME280;49201;53.426;10.300;2023-03-04T06:36:49;101862.09;;;5.94;100.00
63111;BME280;49201;53.426;10.300;2023-03-04T06:39:14;101842.56;;;5.93;100.00
63111;BME280;49201;53.426;10.300;2023-03-04T06:41:40;101816.25;;;5.93;100.00
63111;BME280;49201;53.426;10.300;2023-03-04T06:44:06;101801.97;;;5.95;100.00
63111;BME280;49201;53.426;10.300;2023-03-04T06:46:33;101815.53;;;5.95;100.00
63111;BME280;49201;53.426;10.300;2023-03-04T06:48:58;101801.19;;;5.96;100.00
63111;BME280;49201;53.426;10.300;2023-03-04T06:51:24;101778.22;;;5.94;100.00
63111;BME280;49201;53.426;10.300;2023-03-04T06:53:49;101783.31;;;5.94;100.00
63111;BME280;49201;53.426;10.300;2023-03-04T06:56:15;101796.81;;;5.93;100.00
63111;BME280;49201;53.426;10.300;2023-03-04T06:58:41;101797.63;;;5.92;100.00
63111;BME280;49201;53.426;10.300;2023-03-04T07:01:14;101830.75;;;5.94;100.00
63111;BME280;49201;53.426;10.300;2023-03-04T07:03:40;101817.78;;;5.89;100.00
63111;BME280;49201;53.426;10.300;2023-03-04T07:06:06;101794.66;;;5.85;100.00
63111;BME280;49201;53.426;10.300;2023-03-04T07:08:33;101796.41;;;5.86;100.00
63111;BME280;49201;53.426;10.300;2023-03-04T07:10:59;101814.19;;;5.86;100.00
63111;BME280;49201;53.426;10.300;2023-03-04T07:13:24;101813.41;;;5.87;100.00
63111;BME280;49201;53.426;10.300;2023-03-04T07:15:49;101819.38;;;5.87;100.00
63111;BME280;49201;53.426;10.300;2023-03-04T07:18:15;101823.56;;;5.87;100.00
63111;BME280;49201;53.426;10.300;2023-03-04T07:20:40;101829.63;;;5.89;100.00
63111;BME280;49201;53.426;10.300;2023-03-04T07:23:06;101850.09;;;5.92;100.00
63111;BME280;49201;53.426;10.300;2023-03-04T07:25:31;101854.25;;;5.90;100.00
63111;BME280;49201;53.426;10.300;2023-03-04T07:27:57;101873.84;;;5.92;100.00
63111;BME280;49201;53.426;10.300;2023-03-04T07:30:22;101880.59;;;5.92;100.00
63111;BME280;49201;53.426;10.300;2023-03-04T07:32:48;101886.38;;;5.89;100.00
63111;BME280;49201;53.426;10.300;2023-03-04T07:35:13;101880.44;;;5.89;100.00
63111;BME280;49201;53.426;10.300;2023-03-04T07:37:38;101878.94;;;5.92;100.00
63111;BME280;49201;53.426;10.300;2023-03-04T07:40:06;101839.13;;;5.93;100.00
63111;BME280;49201;53.426;10.300;2023-03-04T07:42:32;101837.56;;;5.95;100.00
63111;BME280;49201;53.426;10.300;2023-03-04T07:45:04;101846.22;;;5.98;100.00
63111;BME280;49201;53.426;10.300;2023-03-04T07:47:30;101862.44;;;6.00;100.00
63111;BME280;49201;53.426;10.300;2023-03-04T07:49:56;101875.16;;;6.00;100.00
63111;BME280;49201;53.426;10.300;2023-03-04T07:52:21;101892.06;;;6.00;100.00
63111;BME280;49201;53.426;10.300;2023-03-04T07:54:47;101886.03;;;5.98;100.00
63111;BME280;49201;53.426;10.300;2023-03-04T07:57:12;101865.94;;;6.02;100.00
63111;BME280;49201;53.426;10.300;2023-03-04T07:59:38;101864.09;;;6.00;100.00
63111;BME280;49201;53.426;10.300;2023-03-04T08:02:03;101854.72;;;5.99;100.00
63111;BME280;49201;53.426;10.300;2023-03-04T08:04:28;101843.78;;;6.00;100.00
63111;BME280;49201;53.426;10.300;2023-03-04T08:06:54;101863.16;;;5.98;100.00
63111;BME280;49201;53.426;10.300;2023-03-04T08:09:19;101876.00;;;6.01;100.00
63111;BME280;49201;53.426;10.300;2023-03-04T08:11:45;101871.00;;;6.02;100.00
63111;BME280;49201;53.426;10.300;2023-03-04T08:14:11;101880.47;;;6.05;100.00
63111;BME280;49201;53.426;10.300;2023-03-04T08:16:38;101886.44;;;6.05;100.00
63111;BME280;49201;53.426;10.300;2023-03-04T08:19:04;101910.59;;;6.13;100.00
63111;BME280;49201;53.426;10.300;2023-03-04T08:21:30;101904.56;;;6.11;100.00
63111;BME280;49201;53.426;10.300;2023-03-04T08:23:58;101888.28;;;6.08;100.00
63111;BME280;49201;53.426;10.300;2023-03-04T08:26:29;101892.56;;;6.09;100.00
63111;BME280;49201;53.426;10.300;2023-03-04T08:28:56;101876.00;;;6.01;100.00
63111;BME280;49201;53.426;10.300;2023-03-04T08:31:22;101877.75;;;6.02;100.00
63111;BME280;49201;53.426;10.300;2023-03-04T08:33:48;101873.66;;;6.04;100.00
63111;BME280;49201;53.426;10.300;2023-03-04T08:36:15;101872.53;;;5.99;100.00
63111;BME280;49201;53.426;10.300;2023-03-04T08:38:41;101875.78;;;5.96;100.00
63111;BME280;49201;53.426;10.300;2023-03-04T08:41:06;101878.22;;;5.95;100.00
63111;BME280;49201;53.426;10.300;2023-03-04T08:43:32;101860.97;;;5.89;100.00
63111;BME280;49201;53.426;10.300;2023-03-04T08:45:59;101864.53;;;5.93;100.00
63111;BME280;49201;53.426;10.300;2023-03-04T08:48:24;101866.94;;;5.90;100.00
63111;BME280;49201;53.426;10.300;2023-03-04T08:50:50;101874.72;;;5.93;100.00
63111;BME280;49201;53.426;10.300;2023-03-04T08:53:17;101899.69;;;6.00;100.00
63111;BME280;49201;53.426;10.300;2023-03-04T08:55:43;101901.19;;;5.96;100.00
63111;BME280;49201;53.426;10.300;2023-03-04T08:58:09;101911.59;;;6.01;100.00
63111;BME280;49201;53.426;10.300;2023-03-04T09:00:38;101906.38;;;5.98;100.00
63111;BME280;49201;53.426;10.300;2023-03-04T09:03:04;101907.13;;;5.97;100.00
63111;BME280;49201;53.426;10.300;2023-03-04T09:05:31;101905.66;;;6.00;100.00
63111;BME280;49201;53.426;10.300;2023-03-04T09:07:57;101901.59;;;6.04;100.00
63111;BME280;49201;53.426;10.300;2023-03-04T09:10:22;101899.91;;;6.04;100.00
63111;BME280;49201;53.426;10.300;2023-03-04T09:12:48;101891.59;;;6.07;100.00
63111;BME280;49201;53.426;10.300;2023-03-04T09:15:13;101883.09;;;6.06;100.00
63111;BME280;49201;53.426;10.300;2023-03-04T09:17:39;101875.66;;;6.09;100.00
63111;BME280;49201;53.426;10.300;2023-03-04T09:20:07;101861.44;;;6.13;100.00
63111;BME280;49201;53.426;10.300;2023-03-04T09:22:35;101820.66;;;6.11;100.00
63111;BME280;49201;53.426;10.300;2023-03-04T09:25:00;101803.59;;;6.09;100.00
63111;BME280;49201;53.426;10.300;2023-03-04T09:27:26;101798.50;;;6.09;100.00
63111;BME280;49201;53.426;10.300;2023-03-04T09:29:51;101801.44;;;6.16;100.00
63111;BME280;49201;53.426;10.300;2023-03-04T09:32:17;101786.00;;;6.13;100.00
63111;BME280;49201;53.426;10.300;2023-03-04T09:34:42;101806.53;;;6.16;100.00
63111;BME280;49201;53.426;10.300;2023-03-04T09:37:08;101810.72;;;6.16;100.00
63111;BME280;49201;53.426;10.300;2023-03-04T09:39:33;101806.44;;;6.15;100.00
63111;BME280;49201;53.426;10.300;2023-03-04T09:41:59;101811.59;;;6.16;100.00
63111;BME280;49201;53.426;10.300;2023-03-04T09:44:31;101821.16;;;6.20;100.00
63111;BME280;49201;53.426;10.300;2023-03-04T09:47:00;101810.66;;;6.14;100.00
63111;BME280;49201;53.426;10.300;2023-03-04T09:49:27;101806.69;;;6.19;100.00
63111;BME280;49201;53.426;10.300;2023-03-04T09:52:03;101812.97;;;6.26;100.00
63111;BME280;49201;53.426;10.300;2023-03-04T09:57:46;101818.53;;;6.35;100.00
63111;BME280;49201;53.426;10.300;2023-03-04T10:11:24;101666.59;;;6.31;100.00
63111;BME280;49201;53.426;10.300;2023-03-04T10:14:02;101662.28;;;6.30;100.00
63111;BME280;49201;53.426;10.300;2023-03-04T10:16:33;101647.34;;;6.36;100.00
63111;BME280;49201;53.426;10.300;2023-03-04T10:21:44;101635.06;;;6.45;100.00
63111;BME280;49201;53.426;10.300;2023-03-04T10:24:19;101648.06;;;6.51;100.00
63111;BME280;49201;53.426;10.300;2023-03-04T10:27:06;101656.06;;;6.58;100.00
63111;BME280;49201;53.426;10.300;2023-03-04T10:29:36;101655.06;;;6.55;100.00
63111;BME280;49201;53.426;10.300;2023-03-04T10:32:01;101673.22;;;6.45;100.00
63111;BME280;49201;53.426;10.300;2023-03-04T10:34:27;101670.06;;;6.50;100.00
63111;BME280;49201;53.426;10.300;2023-03-04T10:37:04;101630.84;;;6.45;100.00
63111;BME280;49201;53.426;10.300;2023-03-04T10:39:34;101642.81;;;6.48;100.00
63111;BME280;49201;53.426;10.300;2023-03-04T10:42:20;101666.03;;;6.54;100.00
63111;BME280;49201;53.426;10.300;2023-03-04T10:44:53;101676.59;;;6.61;100.00
63111;BME280;49201;53.426;10.300;2023-03-04T10:47:23;101661.59;;;6.50;100.00
63111;BME280;49201;53.426;10.300;2023-03-04T10:50:01;101659.25;;;6.54;100.00
63111;BME280;49201;53.426;10.300;2023-03-04T10:52:40;101663.13;;;6.64;100.00
63111;BME280;49201;53.426;10.300;2023-03-04T10:55:16;101669.38;;;6.70;100.00
63111;BME280;49201;53.426;10.300;2023-03-04T10:57:46;101693.38;;;6.75;100.00
63111;BME280;49201;53.426;10.300;2023-03-04T11:00:28;101700.22;;;6.76;100.00
63111;BME280;49201;53.426;10.300;2023-03-04T11:05:43;101635.06;;;6.80;100.00
63111;BME280;49201;53.426;10.300;2023-03-04T11:08:17;101616.31;;;6.78;100.00
63111;BME280;49201;53.426;10.300;2023-03-04T11:10:44;101625.41;;;6.73;100.00
63111;BME280;49201;53.426;10.300;2023-03-04T11:13:21;101660.03;;;6.69;100.00
63111;BME280;49201;53.426;10.300;2023-03-04T11:16:02;101636.00;;;6.64;100.00
63111;BME280;49201;53.426;10.300;2023-03-04T11:18:36;101618.50;;;6.70;100.00
63111;BME280;49201;53.426;10.300;2023-03-04T11:21:05;101595.78;;;6.75;100.00
63111;BME280;49201;53.426;10.300;2023-03-04T11:23:56;101586.69;;;6.80;100.00
63111;BME280;49201;53.426;10.300;2023-03-04T11:26:35;101615.66;;;6.82;100.00
63111;BME280;49201;53.426;10.300;2023-03-04T11:29:35;101608.22;;;7.04;100.00
63111;BME280;49201;53.426;10.300;2023-03-04T11:32:32;101564.13;;;7.05;100.00
63111;BME280;49201;53.426;10.300;2023-03-04T11:35:36;101569.41;;;7.09;100.00
63111;BME280;49201;53.426;10.300;2023-03-04T11:38:19;101527.66;;;7.06;100.00
63111;BME280;49201;53.426;10.300;2023-03-04T11:40:55;101505.16;;;7.15;100.00
63111;BME280;49201;53.426;10.300;2023-03-04T11:43:32;101466.56;;;7.06;100.00
63111;BME280;49201;53.426;10.300;2023-03-04T11:51:32;101433.84;;;7.15;100.00
63111;BME280;49201;53.426;10.300;2023-03-04T12:06:04;101304.00;;;7.79;100.00
63111;BME280;49201;53.426;10.300;2023-03-04T12:19:20;101302.03;;;7.94;100.00
63111;BME280;49201;53.426;10.300;2023-03-04T12:22:07;101326.47;;;7.67;100.00
63111;BME280;49201;53.426;10.300;2023-03-04T12:27:54;101256.03;;;8.15;98.96
63111;BME280;49201;53.426;10.300;2023-03-04T12:33:22;101320.03;;;7.77;100.00
63111;BME280;49201;53.426;10.300;2023-03-04T12:42:06;101390.56;;;7.76;100.00
63111;BME280;49201;53.426;10.300;2023-03-04T12:44:41;101416.59;;;7.69;100.00
63111;BME280;49201;53.426;10.300;2023-03-04T12:47:19;101415.06;;;7.52;100.00
63111;BME280;49201;53.426;10.300;2023-03-04T12:55:03;101460.50;;;7.62;100.00
63111;BME280;49201;53.426;10.300;2023-03-04T12:57:32;101474.16;;;7.64;100.00
63111;BME280;49201;53.426;10.300;2023-03-04T13:08:02;101446.19;;;7.45;100.00
63111;BME280;49201;53.426;10.300;2023-03-04T13:10:32;101439.59;;;7.50;100.00
63111;BME280;49201;53.426;10.300;2023-03-04T13:12:59;101444.53;;;7.46;100.00
63111;BME280;49201;53.426;10.300;2023-03-04T13:17:55;101458.78;;;7.42;100.00
63111;BME280;49201;53.426;10.300;2023-03-04T13:23:02;101464.19;;;7.70;100.00
63111;BME280;49201;53.426;10.300;2023-03-04T13:25:42;101478.94;;;7.77;100.00
63111;BME280;49201;53.426;10.300;2023-03-04T13:41:29;101359.69;;;8.35;100.00
63111;BME280;49201;53.426;10.300;2023-03-04T13:43:57;101301.44;;;8.23;100.00
63111;BME280;49201;53.426;10.300;2023-03-04T13:51:39;101493.53;;;7.40;100.00
63111;BME280;49201;53.426;10.300;2023-03-04T13:54:28;101525.91;;;7.24;100.00
63111;BME280;49201;53.426;10.300;2023-03-04T14:02:00;101493.97;;;7.11;100.00
63111;BME280;49201;53.426;10.300;2023-03-04T14:06:53;101487.09;;;7.10;100.00
63111;BME280;49201;53.426;10.300;2023-03-04T14:09:21;101454.91;;;7.11;100.00
63111;BME280;49201;53.426;10.300;2023-03-04T14:11:49;101447.31;;;7.12;100.00
63111;BME280;49201;53.426;10.300;2023-03-04T14:14:19;101468.94;;;7.22;100.00
63111;BME280;49201;53.426;10.300;2023-03-04T14:16:48;101413.06;;;7.25;100.00
63111;BME280;49201;53.426;10.300;2023-03-04T14:21:48;101409.50;;;7.21;100.00
63111;BME280;49201;53.426;10.300;2023-03-04T14:24:16;101440.06;;;7.21;100.00
63111;BME280;49201;53.426;10.300;2023-03-04T14:26:42;101431.06;;;7.09;100.00
63111;BME280;49201;53.426;10.300;2023-03-04T14:29:37;101440.84;;;7.00;100.00
63111;BME280;49201;53.426;10.300;2023-03-04T14:32:04;101420.16;;;6.92;100.00
63111;BME280;49201;53.426;10.300;2023-03-04T14:34:37;101458.34;;;6.92;100.00
63111;BME280;49201;53.426;10.300;2023-03-04T14:37:18;101416.19;;;6.80;100.00